createdAt,value
2017-04-14T00:00:39.009Z,86.45
2017-04-14T00:01:40.264Z,86.49
2017-04-14T00:02:41.652Z,86.64
2017-04-14T00:03:42.897Z,86.59
2017-04-14T00:04:44.164Z,86.59
2017-04-14T00:05:45.391Z,86.64
2017-04-14T00:06:46.622Z,86.68
2017-04-14T00:07:47.928Z,86.59
2017-04-14T00:08:49.203Z,86.49
2017-04-14T00:09:50.411Z,86.78
2017-04-14T00:10:51.650Z,86.78
2017-04-14T00:11:52.893Z,86.55
2017-04-14T00:12:54.140Z,86.55
2017-04-14T00:13:55.376Z,87.16
2017-04-14T00:14:56.637Z,87.12
2017-04-14T00:15:57.959Z,86.83
2017-04-14T00:16:59.237Z,86.83
2017-04-14T00:18:00.521Z,87.02
2017-04-14T00:19:01.768Z,87.12
2017-04-14T00:20:03.021Z,87.12
2017-04-14T00:21:04.241Z,87.3
2017-04-14T00:22:05.504Z,87.21
2017-04-14T00:23:06.743Z,87.4
2017-04-14T00:24:07.993Z,87.21
2017-04-14T00:25:09.210Z,87.3
2017-04-14T00:26:10.470Z,87.87
2017-04-14T00:27:11.765Z,87.97
2017-04-14T00:28:13.098Z,87.97
2017-04-14T00:29:14.355Z,88.06
2017-04-14T00:30:15.566Z,87.97
2017-04-14T00:31:16.864Z,87.97
2017-04-14T00:32:18.071Z,87.87
2017-04-14T00:33:19.314Z,88.06
2017-04-14T00:34:20.550Z,87.68
2017-04-14T00:35:21.926Z,87.77
2017-04-14T00:36:23.152Z,87.87
2017-04-14T00:37:24.489Z,88.06
2017-04-14T00:38:25.718Z,88.06
2017-04-14T00:39:26.949Z,88.35
2017-04-14T00:40:28.176Z,87.97
2017-04-14T00:41:29.456Z,87.97
2017-04-14T00:42:30.719Z,88.44
2017-04-14T00:43:31.935Z,88.25
2017-04-14T00:44:33.170Z,88.44
2017-04-14T00:45:34.402Z,88.35
2017-04-14T00:46:35.639Z,88.06
2017-04-14T00:47:36.870Z,88.35
2017-04-14T00:48:38.078Z,88.82
2017-04-14T00:49:39.370Z,88.82
2017-04-14T00:50:40.645Z,88.63
2017-04-14T00:51:41.864Z,88.44
2017-04-14T00:52:43.086Z,88.44
2017-04-14T00:53:44.341Z,88.35
2017-04-14T00:54:45.618Z,88.25
2017-04-14T00:55:46.865Z,88.35
2017-04-14T00:56:48.101Z,88.73
2017-04-14T00:57:49.343Z,88.92
2017-04-14T00:58:50.689Z,88.63
2017-04-14T00:59:51.932Z,88.54
2017-04-14T01:00:53.197Z,88.63
2017-04-14T01:01:54.409Z,88.63
2017-04-14T01:02:55.654Z,88.44
2017-04-14T01:03:56.891Z,88.63
2017-04-14T01:04:58.120Z,89.01
2017-04-14T01:05:59.420Z,88.63
2017-04-14T01:07:00.691Z,88.73
2017-04-14T01:08:01.896Z,88.73
2017-04-14T01:09:03.240Z,88.44
2017-04-14T01:10:04.474Z,88.63
2017-04-14T01:11:05.711Z,88.54
2017-04-14T01:12:06.952Z,89.11
2017-04-14T01:13:08.217Z,89.01
2017-04-14T01:14:09.426Z,88.73
2017-04-14T01:15:10.682Z,89.01
2017-04-14T01:16:11.926Z,89.2
2017-04-14T01:17:13.156Z,89.2
2017-04-14T01:18:14.388Z,89.11
2017-04-14T01:19:15.647Z,89.48
2017-04-14T01:20:16.870Z,89.48
2017-04-14T01:21:18.113Z,89.58
2017-04-14T01:22:19.360Z,89.48
2017-04-14T01:23:20.602Z,89.67
2017-04-14T01:24:21.833Z,89.63
2017-04-14T01:25:23.074Z,89.67
2017-04-14T01:26:24.282Z,89.96
2017-04-14T01:27:25.516Z,89.96
2017-04-14T01:28:26.857Z,89.91
2017-04-14T01:29:28.105Z,89.86
2017-04-14T01:30:29.336Z,89.53
2017-04-14T01:31:30.582Z,89.86
2017-04-14T01:32:31.811Z,89.77
2017-04-14T01:33:33.138Z,89.77
2017-04-14T01:34:34.407Z,90.01
2017-04-14T01:35:35.628Z,90.53
2017-04-14T01:36:36.916Z,90.01
2017-04-14T01:37:38.128Z,90.58
2017-04-14T01:38:39.389Z,90.58
2017-04-14T01:39:40.631Z,90.62
2017-04-14T01:40:41.946Z,90.29
2017-04-14T01:41:43.185Z,90.95
2017-04-14T01:42:44.442Z,90.77
2017-04-14T01:43:45.676Z,90.77
2017-04-14T01:44:46.903Z,90.86
2017-04-14T01:45:48.137Z,91
2017-04-14T01:46:49.382Z,90.77
2017-04-14T01:47:50.821Z,90.72
2017-04-14T01:48:52.000Z,90.95
2017-04-14T01:49:53.337Z,91.14
2017-04-14T01:50:54.559Z,91.14
2017-04-14T01:51:55.823Z,91.14
2017-04-14T01:52:57.047Z,91.33
2017-04-14T01:53:58.294Z,90.77
2017-04-14T01:54:59.620Z,91.57
2017-04-14T01:56:00.843Z,91.33
2017-04-14T01:57:02.104Z,91.95
2017-04-14T01:58:03.354Z,91.38
2017-04-14T01:59:04.600Z,91.33
2017-04-14T02:00:05.944Z,91.33
2017-04-14T02:01:07.188Z,91.33
2017-04-14T02:02:08.439Z,91.81
2017-04-14T02:03:09.677Z,91.85
2017-04-14T02:04:10.905Z,91.76
2017-04-14T02:05:12.164Z,91.76
2017-04-14T02:06:13.422Z,91.95
2017-04-14T02:07:14.668Z,91.28
2017-04-14T02:08:15.928Z,91.47
2017-04-14T02:09:17.160Z,91.09
2017-04-14T02:10:18.402Z,91.19
2017-04-14T02:11:19.669Z,91.09
2017-04-14T02:12:21.147Z,91
2017-04-14T02:13:22.502Z,90.43
2017-04-14T02:14:23.630Z,90.81
2017-04-14T02:15:24.859Z,90.62
2017-04-14T02:16:26.099Z,90.81
2017-04-14T02:17:27.376Z,90.34
2017-04-14T02:18:28.618Z,90.24
2017-04-14T02:19:29.854Z,90.43
2017-04-14T02:20:31.150Z,90.34
2017-04-14T02:21:32.392Z,90.34
2017-04-14T02:22:33.666Z,90.24
2017-04-14T02:23:34.903Z,90.81
2017-04-14T02:24:36.205Z,90.81
2017-04-14T02:25:37.453Z,91
2017-04-14T02:26:38.746Z,91.09
2017-04-14T02:27:39.955Z,91.09
2017-04-14T02:28:41.204Z,91.47
2017-04-14T02:29:42.417Z,91.19
2017-04-14T02:30:43.656Z,91.76
2017-04-14T02:31:44.922Z,91.57
2017-04-14T02:32:46.129Z,91.57
2017-04-14T02:33:47.474Z,91.85
2017-04-14T02:34:48.712Z,91.9
2017-04-14T02:35:49.969Z,92.23
2017-04-14T02:36:51.242Z,92.38
2017-04-14T02:37:52.471Z,92.47
2017-04-14T02:38:53.718Z,92.85
2017-04-14T02:39:54.988Z,92.66
2017-04-14T02:40:56.244Z,92.57
2017-04-14T02:41:57.524Z,92.61
2017-04-14T02:42:58.782Z,92.76
2017-04-14T02:44:00.022Z,92.57
2017-04-14T02:45:01.352Z,92.38
2017-04-14T02:46:02.587Z,92.85
2017-04-14T02:47:03.820Z,93.32
2017-04-14T02:48:05.051Z,93.23
2017-04-14T02:49:06.300Z,93.13
2017-04-14T02:50:07.536Z,93.42
2017-04-14T02:51:08.791Z,93.13
2017-04-14T02:52:10.018Z,93.42
2017-04-14T02:53:11.335Z,93.51
2017-04-14T02:54:12.581Z,93.32
2017-04-14T02:55:13.816Z,93.7
2017-04-14T02:56:15.066Z,94.18
2017-04-14T02:57:16.300Z,93.89
2017-04-14T02:58:17.538Z,93.89
2017-04-14T02:59:18.825Z,93.89
2017-04-14T03:00:20.042Z,94.08
2017-04-14T03:01:21.295Z,94.56
2017-04-14T03:02:22.526Z,94.46
2017-04-14T03:03:23.738Z,94.46
2017-04-14T03:04:24.996Z,94.27
2017-04-14T03:05:26.225Z,94.56
2017-04-14T03:06:27.474Z,94.27
2017-04-14T03:07:28.706Z,94.56
2017-04-14T03:08:29.954Z,94.27
2017-04-14T03:09:31.421Z,94.27
2017-04-14T03:10:32.652Z,94.27
2017-04-14T03:11:33.901Z,94.18
2017-04-14T03:12:35.149Z,94.08
2017-04-14T03:13:36.378Z,94.08
2017-04-14T03:14:37.678Z,94.56
2017-04-14T03:15:38.939Z,94.65
2017-04-14T03:16:40.239Z,94.27
2017-04-14T03:17:41.510Z,94.27
2017-04-14T03:18:42.746Z,94.93
2017-04-14T03:19:43.992Z,95.22
2017-04-14T03:20:45.210Z,94.74
2017-04-14T03:21:46.444Z,94.84
2017-04-14T03:22:47.742Z,94.65
2017-04-14T03:23:49.069Z,94.74
2017-04-14T03:24:50.351Z,94.56
2017-04-14T03:25:51.560Z,94.74
2017-04-14T03:26:52.822Z,94.74
2017-04-14T03:27:54.089Z,95.03
2017-04-14T03:28:55.360Z,95.03
2017-04-14T03:29:56.555Z,94.84
2017-04-14T03:30:57.835Z,95.5
2017-04-14T03:31:59.065Z,95.5
2017-04-14T03:33:00.321Z,95.31
2017-04-14T03:34:01.698Z,95.31
2017-04-14T03:35:03.101Z,95.12
2017-04-14T03:36:04.233Z,95.03
2017-04-14T03:37:05.465Z,95.03
2017-04-14T03:38:06.710Z,95.5
2017-04-14T03:39:07.968Z,95.69
2017-04-14T03:40:09.169Z,95.5
2017-04-14T03:41:10.420Z,95.41
2017-04-14T03:42:11.684Z,95.5
2017-04-14T03:43:12.924Z,95.69
2017-04-14T03:44:14.211Z,95.6
2017-04-14T03:45:15.461Z,95.5
2017-04-14T03:46:16.690Z,95.31
2017-04-14T03:47:17.939Z,95.26
2017-04-14T03:48:19.240Z,95.36
2017-04-14T03:49:20.479Z,95.26
2017-04-14T03:50:21.718Z,95.36
2017-04-14T03:51:22.954Z,95.83
2017-04-14T03:52:24.192Z,95.83
2017-04-14T03:53:25.467Z,96.21
2017-04-14T03:54:26.729Z,95.83
2017-04-14T03:55:28.085Z,95.64
2017-04-14T03:56:29.363Z,96.4
2017-04-14T03:57:30.666Z,96.12
2017-04-14T03:58:31.896Z,96.21
2017-04-14T03:59:33.165Z,95.64
2017-04-14T04:00:34.391Z,96.02
2017-04-14T04:01:35.622Z,96.4
2017-04-14T04:02:36.860Z,96.02
2017-04-14T04:03:38.089Z,95.79
2017-04-14T04:04:39.321Z,95.64
2017-04-14T04:05:40.547Z,95.93
2017-04-14T04:06:41.782Z,95.74
2017-04-14T04:07:43.175Z,96.12
2017-04-14T04:08:44.388Z,96.31
2017-04-14T04:09:45.675Z,96.12
2017-04-14T04:10:46.902Z,96.4
2017-04-14T04:11:48.141Z,96.4
2017-04-14T04:12:49.384Z,96.12
2017-04-14T04:13:50.615Z,96.02
2017-04-14T04:14:51.965Z,96.69
2017-04-14T04:15:53.246Z,96.59
2017-04-14T04:16:54.479Z,96.69
2017-04-14T04:17:55.724Z,96.88
2017-04-14T04:18:56.920Z,96.88
2017-04-14T04:19:58.169Z,96.88
2017-04-14T04:20:59.401Z,96.5
2017-04-14T04:22:00.700Z,96.5
2017-04-14T04:23:01.865Z,96.5
2017-04-14T04:24:03.093Z,96.5
2017-04-14T04:25:04.427Z,96.69
2017-04-14T04:26:05.696Z,96.5
2017-04-14T04:27:07.042Z,96.5
2017-04-14T04:28:08.176Z,96.5
2017-04-14T04:29:09.479Z,97.25
2017-04-14T04:30:10.766Z,97.16
2017-04-14T04:31:11.997Z,97.06
2017-04-14T04:32:13.233Z,97.16
2017-04-14T04:33:14.466Z,96.97
2017-04-14T04:34:15.733Z,97.25
2017-04-14T04:35:17.083Z,96.97
2017-04-14T04:36:18.320Z,97.16
2017-04-14T04:37:19.551Z,97.06
2017-04-14T04:38:20.780Z,96.97
2017-04-14T04:39:22.021Z,96.97
2017-04-14T04:40:23.248Z,97.35
2017-04-14T04:41:24.655Z,97.35
2017-04-14T04:42:25.774Z,97.16
2017-04-14T04:43:27.021Z,97.44
2017-04-14T04:44:28.257Z,97.16
2017-04-14T04:45:29.525Z,97.44
2017-04-14T04:46:30.774Z,97.44
2017-04-14T04:47:32.003Z,97.73
2017-04-14T04:48:33.270Z,97.73
2017-04-14T04:49:34.501Z,97.35
2017-04-14T04:50:35.744Z,97.44
2017-04-14T04:51:36.979Z,97.54
2017-04-14T04:52:38.199Z,97.44
2017-04-14T04:53:39.438Z,97.49
2017-04-14T04:54:40.738Z,97.54
2017-04-14T04:55:41.919Z,97.49
2017-04-14T04:56:43.166Z,97.3
2017-04-14T04:57:44.396Z,96.92
2017-04-14T04:58:45.633Z,97.11
2017-04-14T04:59:46.875Z,97.11
2017-04-14T05:00:48.218Z,97.02
2017-04-14T05:01:49.490Z,97.02
2017-04-14T05:02:50.742Z,97.02
2017-04-14T05:03:51.980Z,97.3
2017-04-14T05:04:53.208Z,97.21
2017-04-14T05:05:54.448Z,97.11
2017-04-14T05:06:55.784Z,97.3
2017-04-14T05:07:57.051Z,97.21
2017-04-14T05:08:58.252Z,96.55
2017-04-14T05:09:59.524Z,96.73
2017-04-14T05:11:00.785Z,96.36
2017-04-14T05:12:02.021Z,96.55
2017-04-14T05:13:03.274Z,95.98
2017-04-14T05:14:04.528Z,96.45
2017-04-14T05:15:05.743Z,96.17
2017-04-14T05:16:07.089Z,96.36
2017-04-14T05:17:08.328Z,96.36
2017-04-14T05:18:09.567Z,96.55
2017-04-14T05:19:10.798Z,96.73
2017-04-14T05:20:12.034Z,96.07
2017-04-14T05:21:13.412Z,96.36
2017-04-14T05:22:14.657Z,96.03
2017-04-14T05:23:15.892Z,95.84
2017-04-14T05:24:17.121Z,95.84
2017-04-14T05:25:18.353Z,96.03
2017-04-14T05:26:19.604Z,96.17
2017-04-14T05:27:20.872Z,95.88
2017-04-14T05:28:22.121Z,95.17
2017-04-14T05:29:23.400Z,93.65
2017-04-14T05:30:24.628Z,92.47
2017-04-14T05:31:25.977Z,90.76
2017-04-14T05:32:27.318Z,86.63
2017-04-14T05:33:28.553Z,84.53
2017-04-14T05:34:29.782Z,82.49
2017-04-14T05:35:31.027Z,79.86
2017-04-14T05:36:32.282Z,78.44
2017-04-14T05:37:33.745Z,75.81
2017-04-14T05:38:35.117Z,74.04
2017-04-14T05:39:36.364Z,72.27
2017-04-14T05:40:37.610Z,70.84
2017-04-14T05:41:38.851Z,68.56
2017-04-14T05:42:40.077Z,67.26
2017-04-14T05:43:41.319Z,66.15
2017-04-14T05:44:42.568Z,65.1
2017-04-14T05:45:43.922Z,63.23
2017-04-14T05:46:45.204Z,62.75
2017-04-14T05:47:46.449Z,61.41
2017-04-14T05:48:47.732Z,61.13
2017-04-14T05:49:48.987Z,60.21
2017-04-14T05:50:50.250Z,59.56
2017-04-14T05:51:51.561Z,58.8
2017-04-14T05:52:52.840Z,59.06
2017-04-14T05:53:54.077Z,58.23
2017-04-14T05:54:55.315Z,57.28
2017-04-14T05:55:56.598Z,56.25
2017-04-14T05:56:57.915Z,55.2
2017-04-14T05:57:59.169Z,55.32
2017-04-14T05:59:00.449Z,53.53
2017-04-14T06:00:01.689Z,52.39
2017-04-14T06:01:02.926Z,52.01
2017-04-14T06:02:04.163Z,51.72
2017-04-14T06:03:05.543Z,51.43
2017-04-14T06:04:06.805Z,50.6
2017-04-14T06:05:08.049Z,50.48
2017-04-14T06:06:09.291Z,50.89
2017-04-14T06:07:10.576Z,50.12
2017-04-14T06:08:11.791Z,49.16
2017-04-14T06:09:13.158Z,49
2017-04-14T06:10:14.395Z,49
2017-04-14T06:11:15.645Z,47.58
2017-04-14T06:12:16.900Z,46.62
2017-04-14T06:13:18.131Z,46.34
2017-04-14T06:14:19.429Z,46.31
2017-04-14T06:15:20.678Z,46.72
2017-04-14T06:16:21.930Z,46.25
2017-04-14T06:17:23.177Z,45.69
2017-04-14T06:18:24.443Z,45.12
2017-04-14T06:19:25.751Z,45.02
2017-04-14T06:20:26.978Z,45.29
2017-04-14T06:21:28.262Z,46.15
2017-04-14T06:22:29.486Z,46.15
2017-04-14T06:23:30.747Z,46.08
2017-04-14T06:24:31.982Z,45.5
2017-04-14T06:25:33.224Z,44.85
2017-04-14T06:26:34.464Z,44.09
2017-04-14T06:27:35.820Z,44.01
2017-04-14T06:28:37.194Z,42.88
2017-04-14T06:29:38.456Z,41.27
2017-04-14T06:30:39.682Z,39.85
2017-04-14T06:31:40.981Z,39.47
2017-04-14T06:32:42.237Z,39.37
2017-04-14T06:33:43.487Z,38.81
2017-04-14T06:34:44.725Z,37.95
2017-04-14T06:35:46.002Z,37.39
2017-04-14T06:36:47.251Z,37.1
2017-04-14T06:37:48.474Z,36.25
2017-04-14T06:38:49.730Z,35.97
2017-04-14T06:39:50.973Z,35.77
2017-04-14T06:40:52.231Z,35.39
2017-04-14T06:41:53.588Z,35.58
2017-04-14T06:42:54.896Z,35.02
2017-04-14T06:43:56.161Z,34.37
2017-04-14T06:44:57.419Z,33.98
2017-04-14T06:45:58.677Z,33.13
2017-04-14T06:46:59.954Z,32.57
2017-04-14T06:48:01.256Z,31.72
2017-04-14T06:49:02.521Z,30.85
2017-04-14T06:50:03.776Z,30.76
2017-04-14T06:51:05.011Z,30.58
2017-04-14T06:52:06.378Z,31.33
2017-04-14T06:53:07.689Z,30.94
2017-04-14T06:54:09.068Z,31.88
2017-04-14T06:55:10.307Z,33.02
2017-04-14T06:56:11.577Z,33.5
2017-04-14T06:57:12.799Z,34.25
2017-04-14T06:58:14.150Z,34.35
2017-04-14T06:59:15.454Z,34.46
2017-04-14T07:00:16.696Z,33.89
2017-04-14T07:01:17.948Z,33.71
2017-04-14T07:02:19.186Z,32.94
2017-04-14T07:03:20.436Z,32.28
2017-04-14T07:04:21.777Z,31.72
2017-04-14T07:05:23.082Z,31.56
2017-04-14T07:06:24.297Z,30.11
2017-04-14T07:07:25.555Z,30.11
2017-04-14T07:08:26.918Z,30.37
2017-04-14T07:09:28.236Z,32.07
2017-04-14T07:10:29.506Z,34.16
2017-04-14T07:11:30.792Z,35.66
2017-04-14T07:12:32.082Z,37.64
2017-04-14T07:13:33.325Z,40.02
2017-04-14T07:14:34.593Z,41.25
2017-04-14T07:15:35.830Z,43.13
2017-04-14T07:16:37.191Z,44.73
2017-04-14T07:17:38.462Z,46.34
2017-04-14T07:18:39.680Z,47.75
2017-04-14T07:19:40.967Z,49.07
2017-04-14T07:20:42.236Z,51.62
2017-04-14T07:21:43.626Z,52.46
2017-04-14T07:22:44.953Z,54.25
2017-04-14T07:23:46.190Z,54.91
2017-04-14T07:24:47.422Z,56.32
2017-04-14T07:25:48.648Z,56.7
2017-04-14T07:26:49.929Z,58.33
2017-04-14T07:27:51.183Z,59.92
2017-04-14T07:28:52.432Z,60.3
2017-04-14T07:29:53.780Z,60.65
2017-04-14T07:30:55.035Z,61.89
2017-04-14T07:31:56.276Z,61.51
2017-04-14T07:32:57.551Z,61.8
2017-04-14T07:33:58.802Z,62.56
2017-04-14T07:35:00.022Z,63.42
2017-04-14T07:36:01.343Z,62.94
2017-04-14T07:37:02.605Z,63.32
2017-04-14T07:38:03.839Z,63.42
2017-04-14T07:39:05.075Z,63.23
2017-04-14T07:40:06.373Z,63.8
2017-04-14T07:41:07.628Z,63.42
2017-04-14T07:42:08.878Z,64.28
2017-04-14T07:43:10.144Z,63.7
2017-04-14T07:44:11.372Z,63.7
2017-04-14T07:45:12.967Z,63.7
2017-04-14T07:46:14.199Z,64.47
2017-04-14T07:47:15.546Z,64.85
2017-04-14T07:48:16.845Z,63.99
2017-04-14T07:49:18.100Z,63.23
2017-04-14T07:50:19.322Z,63.42
2017-04-14T07:51:20.570Z,63.51
2017-04-14T07:52:21.809Z,63.32
2017-04-14T07:53:23.128Z,63.32
2017-04-14T07:54:24.377Z,62.94
2017-04-14T07:55:25.614Z,63.32
2017-04-14T07:56:26.857Z,63.42
2017-04-14T07:57:28.146Z,63.6
2017-04-14T07:58:29.452Z,63.6
2017-04-14T07:59:30.679Z,64.28
2017-04-14T08:00:32.027Z,63.99
2017-04-14T08:01:33.266Z,63.89
2017-04-14T08:02:34.522Z,64.47
2017-04-14T08:03:35.804Z,64.65
2017-04-14T08:04:37.118Z,65.04
2017-04-14T08:05:38.306Z,65.33
2017-04-14T08:06:39.633Z,65.04
2017-04-14T08:07:40.866Z,65.1
2017-04-14T08:08:42.127Z,65.77
2017-04-14T08:09:43.349Z,66.53
2017-04-14T08:10:44.586Z,66.82
2017-04-14T08:11:45.945Z,66.53
2017-04-14T08:12:47.187Z,67.29
2017-04-14T08:13:48.457Z,67.1
2017-04-14T08:14:49.690Z,67.96
2017-04-14T08:15:50.933Z,67.77
2017-04-14T08:16:52.170Z,66.44
2017-04-14T08:17:53.418Z,67.29
2017-04-14T08:18:54.679Z,67.77
2017-04-14T08:19:55.907Z,67.93
2017-04-14T08:20:57.147Z,67.68
2017-04-14T08:21:58.390Z,68.53
2017-04-14T08:22:59.657Z,68.15
2017-04-14T08:24:00.905Z,68.15
2017-04-14T08:25:02.124Z,68.34
2017-04-14T08:26:03.383Z,67.86
2017-04-14T08:27:04.632Z,68.44
2017-04-14T08:28:05.940Z,68.05
2017-04-14T08:29:07.177Z,67.77
2017-04-14T08:30:08.447Z,67.86
2017-04-14T08:31:09.696Z,68.15
2017-04-14T08:32:10.945Z,68.05
2017-04-14T08:33:12.191Z,68.24
2017-04-14T08:34:13.426Z,67.68
2017-04-14T08:35:14.673Z,67.96
2017-04-14T08:36:15.935Z,67.58
2017-04-14T08:37:17.284Z,68.05
2017-04-14T08:38:18.537Z,67.77
2017-04-14T08:39:19.781Z,67.68
2017-04-14T08:40:21.050Z,67.96
2017-04-14T08:41:22.298Z,67.96
2017-04-14T08:42:23.621Z,68.15
2017-04-14T08:43:24.880Z,68.5
2017-04-14T08:44:26.106Z,68.69
2017-04-14T08:45:27.366Z,68.98
2017-04-14T08:46:28.653Z,69.07
2017-04-14T08:47:29.866Z,69.26
2017-04-14T08:48:31.119Z,69.07
2017-04-14T08:49:32.380Z,69.35
2017-04-14T08:50:33.695Z,69.93
2017-04-14T08:51:34.932Z,70.02
2017-04-14T08:52:36.202Z,70.31
2017-04-14T08:53:37.400Z,69.74
2017-04-14T08:54:38.656Z,69.74
2017-04-14T08:55:39.895Z,70.21
2017-04-14T08:56:41.188Z,70.02
2017-04-14T08:57:42.469Z,70.21
2017-04-14T08:58:43.691Z,70.02
2017-04-14T08:59:44.914Z,70.15
2017-04-14T09:00:46.212Z,70.44
2017-04-14T09:01:47.626Z,71.11
2017-04-14T09:02:48.885Z,70.25
2017-04-14T09:03:50.115Z,70.25
2017-04-14T09:04:51.350Z,69.01
2017-04-14T09:05:52.574Z,68.57
2017-04-14T09:06:53.884Z,68.15
2017-04-14T09:07:55.118Z,68.44
2017-04-14T09:08:56.364Z,69.1
2017-04-14T09:09:57.627Z,69.29
2017-04-14T09:10:58.894Z,69.48
2017-04-14T09:12:00.107Z,69.39
2017-04-14T09:13:01.354Z,69.48
2017-04-14T09:14:02.593Z,69.2
2017-04-14T09:15:03.834Z,70.25
2017-04-14T09:16:05.105Z,70.44
2017-04-14T09:17:06.342Z,70.25
2017-04-14T09:18:07.593Z,70.34
2017-04-14T09:19:08.808Z,70.63
2017-04-14T09:20:10.047Z,70.72
2017-04-14T09:21:11.464Z,70.25
2017-04-14T09:22:12.701Z,70.25
2017-04-14T09:23:13.936Z,70.25
2017-04-14T09:24:15.231Z,71.17
2017-04-14T09:25:16.463Z,71.58
2017-04-14T09:26:17.729Z,71.01
2017-04-14T09:27:18.964Z,71.48
2017-04-14T09:28:20.315Z,71.2
2017-04-14T09:29:21.663Z,70.92
2017-04-14T09:30:22.906Z,71.58
2017-04-14T09:31:24.150Z,71.3
2017-04-14T09:32:25.467Z,70.44
2017-04-14T09:33:26.708Z,71.2
2017-04-14T09:34:27.988Z,70.63
2017-04-14T09:35:29.226Z,70.72
2017-04-14T09:36:30.510Z,71.39
2017-04-14T09:37:31.726Z,71.01
2017-04-14T09:38:32.985Z,71.48
2017-04-14T09:39:34.213Z,71.45
2017-04-14T09:40:35.495Z,71.26
2017-04-14T09:41:36.809Z,72.02
2017-04-14T09:42:38.039Z,71.83
2017-04-14T09:43:39.282Z,72.5
2017-04-14T09:44:40.546Z,72.21
2017-04-14T09:45:41.769Z,72.69
2017-04-14T09:46:43.019Z,72.78
2017-04-14T09:47:44.259Z,73.07
2017-04-14T09:48:45.487Z,73.26
2017-04-14T09:49:46.723Z,73.45
2017-04-14T09:50:47.970Z,73.83
2017-04-14T09:51:49.211Z,74.21
2017-04-14T09:52:50.551Z,74.02
2017-04-14T09:53:51.779Z,73.45
2017-04-14T09:54:53.049Z,73.36
2017-04-14T09:55:54.310Z,72.88
2017-04-14T09:56:55.516Z,73.01
2017-04-14T09:57:56.749Z,72.34
2017-04-14T09:58:58.086Z,72.41
2017-04-14T09:59:59.325Z,72.34
2017-04-14T10:01:00.715Z,72.25
2017-04-14T10:02:01.946Z,72.44
2017-04-14T10:03:03.179Z,72.34
2017-04-14T10:04:04.495Z,72.44
2017-04-14T10:05:05.915Z,72.25
2017-04-14T10:06:07.258Z,72.53
2017-04-14T10:07:08.498Z,71.96
2017-04-14T10:08:09.739Z,72.16
2017-04-14T10:09:11.004Z,72.34
2017-04-14T10:10:12.249Z,72.34
2017-04-14T10:11:13.497Z,72.78
2017-04-14T10:12:14.779Z,73.07
2017-04-14T10:13:16.014Z,72.88
2017-04-14T10:14:17.270Z,73.26
2017-04-14T10:15:18.498Z,72.63
2017-04-14T10:16:19.774Z,72.97
2017-04-14T10:17:21.029Z,72.5
2017-04-14T10:18:22.258Z,72.5
2017-04-14T10:19:23.493Z,72.69
2017-04-14T10:20:24.728Z,72.69
2017-04-14T10:21:25.974Z,73.17
2017-04-14T10:22:27.205Z,72.97
2017-04-14T10:23:28.455Z,73.11
2017-04-14T10:24:29.728Z,73.01
2017-04-14T10:25:31.057Z,72.63
2017-04-14T10:26:32.288Z,72.72
2017-04-14T10:27:33.525Z,72.53
2017-04-14T10:28:34.768Z,72.25
2017-04-14T10:29:36.033Z,72.06
2017-04-14T10:30:37.287Z,71.87
2017-04-14T10:31:38.541Z,71.58
2017-04-14T10:32:39.826Z,71.48
2017-04-14T10:33:41.067Z,72.16
2017-04-14T10:34:42.306Z,71.3
2017-04-14T10:35:43.547Z,71.48
2017-04-14T10:36:44.792Z,71.68
2017-04-14T10:37:46.034Z,71.48
2017-04-14T10:38:47.316Z,71.68
2017-04-14T10:39:48.566Z,71.39
2017-04-14T10:40:49.808Z,71.14
2017-04-14T10:41:51.041Z,71.58
2017-04-14T10:42:52.280Z,71.2
2017-04-14T10:43:53.660Z,71.3
2017-04-14T10:44:54.916Z,70.92
2017-04-14T10:45:56.159Z,71.2
2017-04-14T10:46:57.397Z,71.39
2017-04-14T10:47:58.634Z,71.48
2017-04-14T10:48:59.878Z,70.34
2017-04-14T10:50:01.148Z,71.01
2017-04-14T10:51:02.406Z,71.2
2017-04-14T10:52:03.665Z,70.57
2017-04-14T10:53:05.093Z,70.28
2017-04-14T10:54:06.314Z,70
2017-04-14T10:55:07.611Z,69.87
2017-04-14T10:56:08.981Z,70.06
2017-04-14T10:57:10.207Z,70.15
2017-04-14T10:58:11.462Z,70.28
2017-04-14T10:59:12.714Z,69.71
2017-04-14T11:00:13.996Z,69.71
2017-04-14T11:01:15.238Z,69.71
2017-04-14T11:02:16.478Z,69.43
2017-04-14T11:03:17.962Z,69.27
2017-04-14T11:04:19.263Z,68.6
2017-04-14T11:05:20.484Z,67.83
2017-04-14T11:06:21.726Z,67.93
2017-04-14T11:07:22.971Z,67.74
2017-04-14T11:08:24.280Z,67.83
2017-04-14T11:09:25.529Z,67.46
2017-04-14T11:10:26.772Z,67.83
2017-04-14T11:11:28.025Z,67.74
2017-04-14T11:12:29.274Z,67.36
2017-04-14T11:13:30.643Z,67.14
2017-04-14T11:14:31.867Z,67.74
2017-04-14T11:15:33.133Z,67.83
2017-04-14T11:16:34.366Z,67.83
2017-04-14T11:17:35.621Z,67.36
2017-04-14T11:18:36.852Z,67.36
2017-04-14T11:19:38.122Z,67.27
2017-04-14T11:20:39.460Z,67.55
2017-04-14T11:21:40.714Z,67.27
2017-04-14T11:22:41.978Z,67.17
2017-04-14T11:23:43.235Z,66.78
2017-04-14T11:24:44.460Z,65.93
2017-04-14T11:25:45.784Z,65.96
2017-04-14T11:26:47.124Z,64.91
2017-04-14T11:27:48.269Z,64.91
2017-04-14T11:28:49.507Z,64.43
2017-04-14T11:29:50.753Z,64.15
2017-04-14T11:30:52.011Z,64.15
2017-04-14T11:31:53.260Z,64.25
2017-04-14T11:32:54.505Z,64.25
2017-04-14T11:33:55.751Z,63.76
2017-04-14T11:34:56.994Z,63.57
2017-04-14T11:35:58.251Z,62.55
2017-04-14T11:36:59.491Z,62.46
2017-04-14T11:38:00.723Z,62.37
2017-04-14T11:39:01.988Z,62.75
2017-04-14T11:40:03.226Z,62.55
2017-04-14T11:41:04.487Z,62.18
2017-04-14T11:42:05.775Z,62.08
2017-04-14T11:43:07.013Z,62.65
2017-04-14T11:44:08.260Z,62.84
2017-04-14T11:45:09.561Z,62.55
2017-04-14T11:46:10.820Z,62.46
2017-04-14T11:47:12.067Z,61.98
2017-04-14T11:48:13.318Z,62.08
2017-04-14T11:49:14.569Z,62.46
2017-04-14T11:50:15.813Z,61.98
2017-04-14T11:51:17.057Z,61.89
2017-04-14T11:52:18.309Z,62.08
2017-04-14T11:53:19.697Z,62.65
2017-04-14T11:54:20.921Z,62.65
2017-04-14T11:55:22.173Z,61.98
2017-04-14T11:56:23.392Z,61.54
2017-04-14T11:57:24.629Z,61.63
2017-04-14T11:58:25.964Z,61.25
2017-04-14T11:59:27.211Z,60.68
2017-04-14T12:00:28.447Z,60.39
2017-04-14T12:01:29.691Z,60.2
2017-04-14T12:02:30.939Z,59.63
2017-04-14T12:03:32.193Z,59.91
2017-04-14T12:04:33.592Z,60.01
2017-04-14T12:05:34.890Z,59.91
2017-04-14T12:06:36.202Z,59.75
2017-04-14T12:07:37.606Z,59.05
2017-04-14T12:08:38.839Z,59.66
2017-04-14T12:09:40.081Z,59.08
2017-04-14T12:10:41.432Z,58.32
2017-04-14T12:11:42.691Z,58.22
2017-04-14T12:12:43.934Z,57.87
2017-04-14T12:13:45.197Z,56.62
2017-04-14T12:14:46.437Z,56.15
2017-04-14T12:15:47.751Z,56.34
2017-04-14T12:16:49.018Z,56.15
2017-04-14T12:17:50.394Z,56.24
2017-04-14T12:18:51.613Z,55.29
2017-04-14T12:19:52.851Z,55.38
2017-04-14T12:20:54.091Z,55.29
2017-04-14T12:21:55.334Z,55.19
2017-04-14T12:22:56.643Z,55
2017-04-14T12:23:57.916Z,55.41
2017-04-14T12:24:59.321Z,55.1
2017-04-14T12:26:00.580Z,54.8
2017-04-14T12:27:01.844Z,54.8
2017-04-14T12:28:03.106Z,54.71
2017-04-14T12:29:04.436Z,54.52
2017-04-14T12:30:05.775Z,54.71
2017-04-14T12:31:07.022Z,54.8
2017-04-14T12:32:08.272Z,55.19
2017-04-14T12:33:09.529Z,55.19
2017-04-14T12:34:10.790Z,55.19
2017-04-14T12:35:12.020Z,55.29
2017-04-14T12:36:13.273Z,55.47
2017-04-14T12:37:14.517Z,55.47
2017-04-14T12:38:15.779Z,54.9
2017-04-14T12:39:17.019Z,55.47
2017-04-14T12:40:18.277Z,55.19
2017-04-14T12:41:19.509Z,54.52
2017-04-14T12:42:20.738Z,55.19
2017-04-14T12:43:22.023Z,55.45
2017-04-14T12:44:23.240Z,55.83
2017-04-14T12:45:24.495Z,56.31
2017-04-14T12:46:25.727Z,56.98
2017-04-14T12:47:26.988Z,57.07
2017-04-14T12:48:28.260Z,56.98
2017-04-14T12:49:29.673Z,56.95
2017-04-14T12:50:30.981Z,57.24
2017-04-14T12:51:32.222Z,57.33
2017-04-14T12:52:33.475Z,58
2017-04-14T12:53:34.772Z,58.1
2017-04-14T12:54:36.073Z,58.19
2017-04-14T12:55:37.434Z,58.67
2017-04-14T12:56:38.680Z,58.95
2017-04-14T12:57:39.927Z,58.29
2017-04-14T12:58:41.161Z,58.48
2017-04-14T12:59:42.406Z,58.58
2017-04-14T13:00:43.769Z,58.86
2017-04-14T13:01:45.030Z,58.48
2017-04-14T13:02:46.267Z,58.45
2017-04-14T13:03:47.536Z,58.16
2017-04-14T13:04:48.849Z,58.07
2017-04-14T13:05:50.104Z,58.36
2017-04-14T13:06:51.397Z,59.31
2017-04-14T13:07:52.634Z,59.41
2017-04-14T13:08:53.878Z,60.17
2017-04-14T13:09:55.225Z,59.59
2017-04-14T13:10:56.498Z,59.59
2017-04-14T13:11:58.081Z,59.98